Spring Grove, Illinois
Current Conditions -  °F | °C
As of 11:15 PM on Monday 20 Oct 2014 (Local Time) from KBUU Reporting Station
Overcast Overcast  
Wind Chill: 49°   Ceiling: 5000
Heat Index: 49°   Visibility: 10mi
Dew Point: 41°   Wind: 3mph
Humidity: 76%   Direction: 340°NNW
Pressure: 30.01"   Gusts: NA
Location:  42.44°N, 88.24°W
Report Text: KBUU 210415Z AUTO 34003KT 10SM OVC050 09/05 A3001 RMK AO2 T00920051
Loading
Personal Weather Stations






























Interactive Weather Map
Tropical Storm Tracking
New forecast layout! Learn more

10-Day Weather Forecast

Advertisements
Track Severe Weather on mobile